Time;durP1;ratioP1;P1;durP2;ratioP2;P2;SDS_P1;SDS_P2;PMS_P1;PMS_P2;Temp;Humidity;BMP_temperature;BMP_pressure;BME280_temperature;BME280_humidity;BME280_pressure;Samples;Min_cycle;Max_cycle;Signal;HPM_P1;HPM_P2
2021/03/23 00:01:46;;;;;;;15.95;10.50;;;;;;;6.72;66.33;102616.94;4983465;28;20074;-75
2021/03/23 00:04:14;;;;;;;20.83;10.95;;;;;;;6.75;66.65;102602.88;4972708;28;20057;-75
2021/03/23 00:06:40;;;;;;;16.98;11.00;;;;;;;6.78;67.02;102613.13;4978345;28;20113;-74
2021/03/23 00:09:07;;;;;;;19.08;11.73;;;;;;;6.81;66.35;102606.94;4975814;28;20054;-75
2021/03/23 00:11:36;;;;;;;15.73;10.95;;;;;;;6.81;67.06;102613.00;4991344;28;20069;-74
2021/03/23 00:14:07;;;;;;;18.95;10.70;;;;;;;6.77;65.89;102608.03;4985348;28;20124;-74
2021/03/23 00:16:38;;;;;;;16.45;10.45;;;;;;;6.76;65.51;102608.94;4985950;28;20095;-74
2021/03/23 00:19:05;;;;;;;15.75;10.40;;;;;;;6.69;65.34;102604.03;4979275;28;20522;-74
2021/03/23 00:21:32;;;;;;;17.08;10.07;;;;;;;6.64;66.07;102610.38;4990031;28;20568;-74
2021/03/23 00:23:59;;;;;;;17.05;11.07;;;;;;;6.66;66.08;102606.78;4988077;28;20497;-75
2021/03/23 00:26:26;;;;;;;13.93;9.80;;;;;;;6.68;65.77;102604.97;4982833;28;20136;-74
2021/03/23 00:28:54;;;;;;;17.02;9.82;;;;;;;6.68;65.57;102596.28;4989335;28;20079;-74
2021/03/23 00:31:23;;;;;;;14.07;9.43;;;;;;;6.76;66.37;102601.94;4975160;28;20054;-74
2021/03/23 00:33:57;;;;;;;13.82;9.45;;;;;;;6.74;65.37;102593.34;4988964;28;20093;-74
2021/03/23 00:36:26;;;;;;;15.35;9.60;;;;;;;6.69;64.97;102597.97;4980007;28;20058;-74
2021/03/23 00:38:54;;;;;;;16.10;8.98;;;;;;;6.73;65.33;102597.72;4984803;28;20047;-74
2021/03/23 00:41:21;;;;;;;14.27;9.40;;;;;;;6.66;65.47;102592.91;4987758;28;20485;-74
2021/03/23 00:43:48;;;;;;;16.63;9.38;;;;;;;6.72;66.17;102588.25;4997794;28;20125;-74
2021/03/23 00:46:14;;;;;;;15.75;10.32;;;;;;;6.69;66.74;102574.50;4990773;28;20508;-74
2021/03/23 00:48:40;;;;;;;14.73;10.15;;;;;;;6.77;66.47;102585.38;4978448;28;20077;-75
2021/03/23 00:51:07;;;;;;;16.13;9.73;;;;;;;6.82;66.25;102579.91;4987195;28;20481;-74
2021/03/23 00:53:33;;;;;;;16.02;9.95;;;;;;;6.79;66.71;102574.88;4975888;28;20050;-74
2021/03/23 00:56:01;;;;;;;18.85;10.85;;;;;;;6.78;66.59;102578.41;4986605;28;20064;-74
2021/03/23 00:58:28;;;;;;;15.23;8.68;;;;;;;6.79;66.34;102587.91;4972314;28;20058;-74
2021/03/23 01:00:54;;;;;;;15.68;9.45;;;;;;;6.81;66.48;102586.91;4991836;28;20390;-74
2021/03/23 01:03:21;;;;;;;17.13;9.30;;;;;;;6.81;66.46;102586.06;4987919;28;20178;-74
2021/03/23 01:05:49;;;;;;;16.23;10.45;;;;;;;6.78;66.65;102581.00;5004175;28;20050;-75
2021/03/23 01:08:17;;;;;;;15.15;9.93;;;;;;;6.78;66.35;102581.84;4978534;28;20049;-75
2021/03/23 01:10:43;;;;;;;16.40;10.40;;;;;;;6.82;66.54;102580.78;4975509;28;20045;-75
2021/03/23 01:13:10;;;;;;;14.90;8.95;;;;;;;6.77;66.02;102571.50;4980941;28;20085;-74
2021/03/23 01:15:36;;;;;;;19.27;10.02;;;;;;;6.73;66.53;102570.81;4985396;28;20433;-74
2021/03/23 01:18:03;;;;;;;14.98;9.75;;;;;;;6.69;67.01;102567.50;4986005;28;20145;-74
2021/03/23 01:20:31;;;;;;;14.80;9.73;;;;;;;6.66;66.53;102566.81;4993540;28;20058;-74
2021/03/23 01:22:58;;;;;;;19.30;10.02;;;;;;;6.68;66.41;102564.97;4979183;28;20091;-75
2021/03/23 01:25:24;;;;;;;16.10;8.75;;;;;;;6.68;66.68;102568.47;4971964;28;20058;-74
2021/03/23 01:27:51;;;;;;;16.73;8.32;;;;;;;6.61;66.17;102567.06;4977697;28;20724;-74
2021/03/23 01:30:20;;;;;;;16.25;9.00;;;;;;;6.65;65.37;102576.41;4987049;28;20406;-75
2021/03/23 01:32:47;;;;;;;15.23;8.38;;;;;;;6.59;65.69;102573.28;4979331;28;20486;-74
2021/03/23 01:35:13;;;;;;;12.38;7.97;;;;;;;6.54;65.49;102573.50;4985388;28;20395;-74
2021/03/23 01:37:40;;;;;;;13.35;7.82;;;;;;;6.50;65.51;102572.81;4978203;28;20116;-74
2021/03/23 01:40:08;;;;;;;13.70;8.23;;;;;;;6.47;65.87;102566.94;4975812;28;20055;-75
2021/03/23 01:42:46;;;;;;;12.10;7.30;;;;;;;6.53;66.27;102564.00;4970314;28;20062;-74
2021/03/23 01:45:26;;;;;;;11.73;7.40;;;;;;;6.52;65.79;102560.53;4987115;28;20564;-74
2021/03/23 01:47:54;;;;;;;16.38;7.78;;;;;;;6.49;65.61;102560.72;4978990;28;20153;-74
2021/03/23 01:50:21;;;;;;;14.73;7.85;;;;;;;6.50;65.78;102551.13;4984799;28;20487;-74
2021/03/23 01:52:53;;;;;;;13.10;8.10;;;;;;;6.49;65.87;102557.28;4981121;28;20058;-74
2021/03/23 01:55:20;;;;;;;13.70;7.70;;;;;;;6.43;65.94;102555.81;4975543;28;20113;-73
2021/03/23 01:57:49;;;;;;;14.77;7.97;;;;;;;6.43;65.34;102560.16;4985254;28;20170;-72
2021/03/23 02:00:15;;;;;;;14.05;8.38;;;;;;;6.38;65.17;102552.56;4980193;28;20058;-73
2021/03/23 02:02:41;;;;;;;15.05;8.65;;;;;;;6.36;65.26;102561.41;4985172;28;20054;-73
2021/03/23 02:05:17;;;;;;;15.13;8.60;;;;;;;6.35;65.46;102557.97;4966429;28;20065;-73
2021/03/23 02:07:44;;;;;;;15.15;8.88;;;;;;;6.39;65.48;102564.69;4968546;28;20582;-73
2021/03/23 02:10:10;;;;;;;14.48;8.75;;;;;;;6.33;65.74;102564.97;4977795;28;20050;-73
2021/03/23 02:12:37;;;;;;;16.92;9.05;;;;;;;6.29;65.77;102558.22;4974709;28;20071;-73
2021/03/23 02:15:06;;;;;;;20.23;10.43;;;;;;;6.27;66.27;102567.91;4970516;28;20062;-73
2021/03/23 02:17:35;;;;;;;13.98;9.48;;;;;;;6.36;66.54;102559.63;4964231;28;20740;-73
2021/03/23 02:20:18;;;;;;;18.70;9.32;;;;;;;6.26;66.45;102550.59;4976082;28;20116;-72
2021/03/23 02:22:49;;;;;;;18.92;11.00;;;;;;;6.32;66.19;102569.34;4972325;28;20058;-72
2021/03/23 02:25:20;;;;;;;17.30;10.75;;;;;;;6.31;66.03;102565.09;4967039;28;20054;-72
2021/03/23 02:27:46;;;;;;;17.70;11.23;;;;;;;6.36;66.10;102564.84;4963124;28;20059;-73
2021/03/23 02:30:22;;;;;;;18.55;12.02;;;;;;;6.34;66.46;102557.09;4974405;28;20082;-72
2021/03/23 02:32:48;;;;;;;19.77;12.38;;;;;;;6.33;66.23;102559.78;4989640;28;20197;-73
2021/03/23 02:35:27;;;;;;;19.15;12.52;;;;;;;6.29;66.86;102551.28;4981862;28;20066;-73
2021/03/23 02:37:54;;;;;;;19.80;12.75;;;;;;;6.25;67.08;102541.94;4970979;28;20090;-73
2021/03/23 02:40:20;;;;;;;21.25;13.80;;;;;;;6.27;66.58;102539.22;4974595;28;20127;-73
2021/03/23 02:42:46;;;;;;;24.17;14.32;;;;;;;6.21;66.85;102529.13;4980624;28;20113;-73
2021/03/23 02:45:12;;;;;;;24.20;14.40;;;;;;;6.22;66.88;102530.81;4959522;28;20479;-73
2021/03/23 02:47:38;;;;;;;21.83;14.13;;;;;;;6.27;66.73;102534.88;4980822;28;20560;-73
2021/03/23 02:50:07;;;;;;;24.52;14.90;;;;;;;6.28;67.34;102531.34;4973354;28;20061;-73
2021/03/23 02:52:33;;;;;;;26.80;14.77;;;;;;;6.28;67.38;102531.34;4982584;28;20112;-73
2021/03/23 02:54:59;;;;;;;25.27;14.80;;;;;;;6.28;67.34;102527.91;4972638;28;20057;-73
2021/03/23 02:57:25;;;;;;;27.15;14.82;;;;;;;6.32;67.14;102519.84;4983445;28;20054;-73
2021/03/23 02:59:51;;;;;;;24.23;15.68;;;;;;;6.32;67.53;102530.25;4978664;28;20054;-73
2021/03/23 03:02:17;;;;;;;24.60;14.82;;;;;;;6.33;67.76;102536.31;4979732;28;20137;-72
2021/03/23 03:04:43;;;;;;;23.25;15.32;;;;;;;6.32;67.39;102527.66;4979258;28;20580;-73
2021/03/23 03:07:09;;;;;;;24.00;15.23;;;;;;;6.37;67.63;102527.44;4976840;28;20058;-73
2021/03/23 03:09:36;;;;;;;28.20;16.13;;;;;;;6.37;67.91;102519.63;4994578;28;20113;-73
2021/03/23 03:12:02;;;;;;;24.10;15.32;;;;;;;6.33;67.38;102528.50;4978365;28;20120;-72
2021/03/23 03:14:28;;;;;;;27.00;16.30;;;;;;;6.36;67.52;102524.91;4984883;28;20062;-73
2021/03/23 03:16:54;;;;;;;25.42;15.48;;;;;;;6.30;67.10;102524.28;4971519;28;20068;-72
2021/03/23 03:19:20;;;;;;;30.63;16.30;;;;;;;6.31;67.95;102525.13;4989569;28;20050;-73
2021/03/23 03:21:46;;;;;;;27.58;16.67;;;;;;;6.29;67.57;102517.41;4990813;28;20264;-72
2021/03/23 03:24:12;;;;;;;29.90;18.35;;;;;;;6.27;67.95;102515.78;4991581;28;20508;-72
2021/03/23 03:26:38;;;;;;;28.17;16.38;;;;;;;6.25;67.96;102531.50;4998073;28;20061;-72
2021/03/23 03:29:04;;;;;;;28.52;17.38;;;;;;;6.21;68.27;102516.09;4995718;28;20061;-72
2021/03/23 03:31:31;;;;;;;32.22;18.15;;;;;;;6.20;67.69;102515.25;4996532;28;20053;-72
2021/03/23 03:34:00;;;;;;;32.60;18.17;;;;;;;6.21;68.20;102514.31;4973113;28;20157;-72
2021/03/23 03:36:28;;;;;;;32.80;18.23;;;;;;;6.24;67.95;102511.56;4984454;28;20549;-73
2021/03/23 03:38:55;;;;;;;36.13;19.30;;;;;;;6.23;68.07;102509.03;4975417;28;20073;-73
2021/03/23 03:41:22;;;;;;;35.75;19.52;;;;;;;6.23;67.78;102507.25;4983004;28;20050;-72
2021/03/23 03:43:50;;;;;;;35.67;20.95;;;;;;;6.24;67.69;102513.34;4979799;28;20058;-73
2021/03/23 03:46:16;;;;;;;34.22;20.08;;;;;;;6.22;66.97;102508.19;4962077;28;20136;-72
2021/03/23 03:48:43;;;;;;;34.10;20.38;;;;;;;6.21;67.36;102503.88;4970237;28;20051;-72
2021/03/23 03:51:09;;;;;;;32.58;20.67;;;;;;;6.24;67.75;102495.09;4969203;28;20105;-72
2021/03/23 03:53:35;;;;;;;35.50;21.98;;;;;;;6.18;67.36;102496.25;4987570;28;20058;-72
2021/03/23 03:56:02;;;;;;;36.65;21.92;;;;;;;6.06;67.33;102470.81;4977706;28;20787;-72
2021/03/23 03:58:29;;;;;;;39.75;21.50;;;;;;;6.11;67.85;102487.88;4979280;28;20478;-72
2021/03/23 04:00:56;;;;;;;40.38;22.10;;;;;;;6.10;67.40;102485.38;4973769;28;20050;-73
2021/03/23 04:03:28;;;;;;;39.35;21.98;;;;;;;6.15;67.62;102488.56;4983482;28;20445;-72
2021/03/23 04:05:56;;;;;;;34.33;21.88;;;;;;;6.09;67.16;102494.91;4984606;28;20697;-72
2021/03/23 04:08:31;;;;;;;35.88;20.52;;;;;;;6.14;67.36;102495.53;4971889;28;20066;-73
2021/03/23 04:10:59;;;;;;;39.33;22.33;;;;;;;6.10;67.19;102493.19;4975597;28;20108;-72
2021/03/23 04:13:25;;;;;;;36.97;22.33;;;;;;;6.06;67.03;102486.44;4967646;28;20134;-73
2021/03/23 04:15:52;;;;;;;35.85;21.83;;;;;;;6.13;67.36;102487.81;4989994;28;20058;-73
2021/03/23 04:18:25;;;;;;;33.63;19.92;;;;;;;6.17;67.47;102493.72;4978318;28;20145;-73
2021/03/23 04:20:53;;;;;;;34.08;21.08;;;;;;;6.16;67.25;102498.09;4985324;28;20054;-73
2021/03/23 04:23:30;;;;;;;36.35;20.98;;;;;;;6.17;67.14;102499.75;4982795;28;20634;-72
2021/03/23 04:25:57;;;;;;;33.38;19.73;;;;;;;6.19;67.54;102497.91;4988492;28;20142;-72
2021/03/23 04:28:24;;;;;;;36.28;21.42;;;;;;;6.23;67.54;102490.78;4987795;28;20119;-73
2021/03/23 04:30:51;;;;;;;36.20;20.05;;;;;;;6.22;67.38;102489.94;4980386;28;20191;-72
2021/03/23 04:33:19;;;;;;;41.03;22.40;;;;;;;6.21;67.41;102496.06;4991836;28;20050;-73
2021/03/23 04:35:56;;;;;;;38.45;21.10;;;;;;;6.21;67.75;102492.63;4986107;28;20062;-72
2021/03/23 04:38:25;;;;;;;35.67;20.80;;;;;;;6.23;67.56;102496.00;4982558;28;20065;-72
2021/03/23 04:40:53;;;;;;;38.67;21.23;;;;;;;6.22;67.47;102497.78;4966752;28;20896;-73
2021/03/23 04:43:29;;;;;;;36.78;20.67;;;;;;;6.25;68.04;102488.94;4982574;28;20058;-73
2021/03/23 04:45:55;;;;;;;36.75;20.80;;;;;;;6.30;67.11;102486.97;4977591;28;20057;-72
2021/03/23 04:48:23;;;;;;;37.20;20.08;;;;;;;6.21;67.87;102484.81;4982481;28;20766;-73
2021/03/23 04:50:50;;;;;;;38.03;21.30;;;;;;;6.28;67.78;102491.41;4977119;28;20053;-73
2021/03/23 04:53:18;;;;;;;36.15;19.63;;;;;;;6.36;67.75;102496.25;4977364;28;20081;-72
2021/03/23 04:55:45;;;;;;;42.00;21.50;;;;;;;6.34;67.68;102499.75;4967035;28;20058;-72
2021/03/23 04:58:11;;;;;;;41.33;22.58;;;;;;;6.34;67.30;102498.91;4979112;28;20054;-72
2021/03/23 05:00:37;;;;;;;40.15;22.48;;;;;;;6.33;68.05;102503.28;4990261;28;20757;-72
2021/03/23 05:03:05;;;;;;;39.70;21.40;;;;;;;6.33;67.59;102503.28;4999385;28;20064;-72
2021/03/23 05:05:32;;;;;;;39.85;21.42;;;;;;;6.26;68.52;102503.69;4983141;28;20124;-72
2021/03/23 05:07:58;;;;;;;41.65;21.38;;;;;;;6.30;68.35;102502.59;4971664;28;20552;-72
2021/03/23 05:10:25;;;;;;;39.35;21.67;;;;;;;6.38;68.99;102504.81;4983040;28;20055;-72
2021/03/23 05:12:50;;;;;;;39.05;20.27;;;;;;;6.40;67.80;102503.81;4994363;28;20052;-72
2021/03/23 05:15:17;;;;;;;39.80;20.23;;;;;;;6.35;67.84;102498.00;4995862;28;20054;-72
2021/03/23 05:17:43;;;;;;;36.10;21.13;;;;;;;6.34;68.35;102498.91;5000875;28;20418;-72
2021/03/23 05:20:10;;;;;;;31.95;20.55;;;;;;;6.35;68.47;102495.41;4977716;28;20066;-72
2021/03/23 05:22:36;;;;;;;37.72;21.30;;;;;;;6.37;67.84;102498.78;4982816;28;20485;-73
2021/03/23 05:25:03;;;;;;;36.58;20.73;;;;;;;6.38;68.70;102497.84;4981113;28;20608;-71
2021/03/23 05:27:29;;;;;;;40.08;21.42;;;;;;;6.36;68.74;102499.69;4988461;28;20055;-73
2021/03/23 05:29:55;;;;;;;35.67;21.75;;;;;;;6.38;68.69;102497.00;4962789;28;20089;-73
2021/03/23 05:32:21;;;;;;;45.10;21.42;;;;;;;6.24;68.02;102490.72;4970452;28;20494;-72
2021/03/23 05:34:47;;;;;;;36.28;21.10;;;;;;;6.25;68.95;102489.81;4961543;28;20047;-72
2021/03/23 05:37:13;;;;;;;46.80;22.50;;;;;;;6.27;68.62;102489.72;4970499;28;20227;-72
2021/03/23 05:39:41;;;;;;;38.72;21.88;;;;;;;6.20;68.93;102485.75;4987873;28;20532;-75
2021/03/23 05:42:34;;;;;;;41.28;22.38;;;;;;;6.18;68.48;102488.44;4981633;28;20058;-74
2021/03/23 05:45:22;;;;;;;41.58;22.10;;;;;;;6.19;68.91;102497.06;4986260;28;20658;-72
2021/03/23 05:48:26;;;;;;;38.13;22.27;;;;;;;6.24;68.69;102498.53;4974319;28;20054;-72
2021/03/23 05:51:03;;;;;;;40.95;21.55;;;;;;;6.24;68.60;102501.13;4980625;28;20101;-72
2021/03/23 05:53:54;;;;;;;39.47;20.80;;;;;;;6.20;68.31;102494.41;4976544;28;20061;-73
2021/03/23 05:56:20;;;;;;;40.50;21.85;;;;;;;6.17;68.57;102497.16;4984844;28;20112;-72
2021/03/23 05:58:52;;;;;;;40.80;21.08;;;;;;;6.10;68.21;102494.03;4992580;28;20159;-72
2021/03/23 06:01:24;;;;;;;40.45;21.80;;;;;;;6.09;68.21;102494.09;4976606;28;20734;-73
2021/03/23 06:04:29;;;;;;;41.38;21.77;;;;;;;6.13;68.14;102514.72;4962292;28;20060;-72
2021/03/23 06:07:02;;;;;;;36.88;20.70;;;;;;;6.03;68.63;102508.25;4966666;28;20047;-72
2021/03/23 06:09:35;;;;;;;39.63;23.00;;;;;;;6.01;68.67;102510.09;4959132;28;20055;-74
2021/03/23 06:12:21;;;;;;;41.67;21.50;;;;;;;5.87;69.23;102502.09;4977710;28;20110;-73
2021/03/23 06:14:57;;;;;;;46.90;23.73;;;;;;;5.85;69.64;102507.38;4962050;28;20054;-73
2021/03/23 06:17:34;;;;;;;40.17;22.60;;;;;;;5.86;69.56;102506.47;4980461;28;20878;-73
2021/03/23 06:20:27;;;;;;;47.95;23.75;;;;;;;5.89;69.08;102519.31;4978134;28;20054;-73
2021/03/23 06:23:26;;;;;;;40.20;21.38;;;;;;;5.91;69.71;102522.69;4970631;28;20094;-73
2021/03/23 06:26:03;;;;;;;37.97;20.95;;;;;;;5.88;69.62;102527.19;4965621;28;20121;-73
2021/03/23 06:28:55;;;;;;;37.90;21.67;;;;;;;5.93;69.35;102525.22;4986942;28;20054;-73
2021/03/23 06:31:37;;;;;;;38.13;21.00;;;;;;;5.93;69.48;102531.28;4967552;28;20077;-73
2021/03/23 06:34:03;;;;;;;41.53;21.73;;;;;;;5.91;69.34;102522.69;4981729;28;20090;-72
2021/03/23 06:36:31;;;;;;;43.03;22.13;;;;;;;5.88;69.77;102529.81;4989363;28;20383;-73
2021/03/23 06:38:58;;;;;;;47.70;22.55;;;;;;;5.93;70.26;102527.84;4985823;28;20054;-73
2021/03/23 06:41:28;;;;;;;42.45;21.92;;;;;;;6.00;69.98;102526.66;4962847;28;21019;-73
2021/03/23 06:43:58;;;;;;;41.45;20.83;;;;;;;5.99;69.59;102531.94;4961639;28;20057;-73
2021/03/23 06:46:26;;;;;;;;;;;;;;;5.98;69.96;102531.09;4968328;28;20474;-73
2021/03/23 06:49:14;;;;;;;43.90;21.25;;;;;;;5.97;69.97;102532.00;4964322;28;19933;-73
2021/03/23 06:52:03;;;;;;;46.83;22.47;;;;;;;5.96;70.47;102539.88;4986542;28;20112;-73
2021/03/23 06:54:38;;;;;;;42.70;21.55;;;;;;;6.04;70.30;102543.81;4996779;28;20086;-73
2021/03/23 06:57:18;;;;;;;46.72;23.33;;;;;;;6.06;70.27;102539.38;4990461;28;20115;-73
2021/03/23 07:00:03;;;;;;;49.78;22.98;;;;;;;6.06;70.40;102543.75;4978489;28;20058;-73
2021/03/23 07:02:36;;;;;;;47.70;23.08;;;;;;;6.08;69.92;102544.53;4972210;28;20078;-73
2021/03/23 07:05:35;;;;;;;44.58;21.65;;;;;;;6.05;70.62;102539.44;4983770;28;20767;-73
2021/03/23 07:08:08;;;;;;;42.03;20.77;;;;;;;6.05;69.92;102539.44;4969124;28;20567;-73
2021/03/23 07:10:42;;;;;;;42.30;21.80;;;;;;;6.11;70.29;102546.97;4973097;28;20451;-73
2021/03/23 07:13:25;;;;;;;38.47;21.45;;;;;;;6.24;70.55;102555.88;4973899;28;20574;-73
2021/03/23 07:16:24;;;;;;;44.10;23.13;;;;;;;6.26;69.65;102551.41;4983169;28;20054;-73
2021/03/23 07:18:51;;;;;;;45.95;22.25;;;;;;;6.31;70.57;102559.88;4969017;28;20054;-73
2021/03/23 07:21:29;;;;;;;45.42;23.27;;;;;;;6.40;70.05;102562.94;4965408;28;20050;-73
2021/03/23 07:24:09;;;;;;;40.22;22.05;;;;;;;6.41;69.44;102560.25;4988774;28;20144;-73
2021/03/23 07:26:38;;;;;;;41.75;22.17;;;;;;;6.45;69.44;102553.09;4987632;28;20051;-73
2021/03/23 07:29:11;;;;;;;47.55;22.92;;;;;;;6.56;70.00;102548.19;4982686;28;20057;-73
2021/03/23 07:31:58;;;;;;;47.15;23.30;;;;;;;6.60;69.70;102554.94;4975508;28;20113;-73
2021/03/23 07:34:30;;;;;;;44.95;22.02;;;;;;;6.57;69.68;102549.06;4983717;28;20152;-73
2021/03/23 07:37:17;;;;;;;44.97;22.25;;;;;;;6.53;69.87;102545.75;4962310;28;20129;-74
2021/03/23 07:39:50;;;;;;;46.40;24.65;;;;;;;6.57;69.71;102546.44;4979152;28;20564;-74
2021/03/23 07:42:25;;;;;;;45.28;23.33;;;;;;;6.70;69.92;102552.69;4973922;28;20123;-74
2021/03/23 07:45:01;;;;;;;44.65;23.23;;;;;;;6.67;69.99;102552.88;4981535;28;21084;-74
2021/03/23 07:47:40;;;;;;;49.75;24.92;;;;;;;6.71;69.93;102557.00;4981383;28;20137;-74
2021/03/23 07:50:24;;;;;;;50.97;26.25;;;;;;;6.68;69.82;102563.25;4981290;28;20064;-74
2021/03/23 07:53:13;;;;;;;56.92;25.58;;;;;;;6.76;70.31;102549.78;4981128;28;20067;-74
2021/03/23 07:55:40;;;;;;;58.47;27.17;;;;;;;6.63;70.72;102557.41;4982728;28;20101;-74
2021/03/23 07:58:32;;;;;;;56.58;26.83;;;;;;;6.73;70.67;102550.78;4983030;28;20061;-74
2021/03/23 08:01:15;;;;;;;60.65;28.70;;;;;;;6.73;70.75;102558.59;4983963;28;20054;-74
2021/03/23 08:04:02;;;;;;;66.93;31.05;;;;;;;6.84;71.39;102555.47;4981814;28;20091;-73
2021/03/23 08:06:48;;;;;;;67.97;31.95;;;;;;;6.84;71.09;102562.44;4981427;28;20081;-74
2021/03/23 08:09:56;;;;;;;77.65;36.38;;;;;;;6.81;71.52;102552.16;4984120;28;20058;-74
2021/03/23 08:12:32;;;;;;;73.63;34.22;;;;;;;6.81;71.38;102555.59;4984191;28;20058;-74
2021/03/23 08:15:22;;;;;;;75.45;33.92;;;;;;;6.91;71.77;102550.75;5002346;28;20050;-74
2021/03/23 08:18:16;;;;;;;86.93;38.30;;;;;;;6.95;72.20;102556.66;4998728;28;20054;-74
2021/03/23 08:20:52;;;;;;;93.25;42.70;;;;;;;7.03;71.85;102559.72;4998851;28;20058;-74
2021/03/23 08:23:41;;;;;;;100.70;44.83;;;;;;;7.06;71.78;102570.84;5000478;28;20740;-74
2021/03/23 08:26:32;;;;;;;92.30;42.03;;;;;;;7.14;71.71;102575.66;5001264;28;20557;-74
2021/03/23 08:29:15;;;;;;;95.65;42.28;;;;;;;7.02;71.46;102576.31;4991028;28;20139;-74
2021/03/23 08:31:56;;;;;;;91.95;40.50;;;;;;;7.05;71.81;102576.97;4979106;28;20046;-74
2021/03/23 08:34:41;;;;;;;77.85;37.45;;;;;;;7.05;71.01;102578.72;4999658;28;20058;-74
2021/03/23 08:37:36;;;;;;;74.38;34.33;;;;;;;7.07;71.15;102575.13;5007324;28;20088;-74
2021/03/23 08:40:37;;;;;;;74.07;34.40;;;;;;;7.06;71.46;102576.06;4987566;28;20097;-74
2021/03/23 08:43:06;;;;;;;81.53;37.63;;;;;;;7.03;71.38;102578.81;4960656;28;20062;-76
2021/03/23 08:45:36;;;;;;;75.65;38.00;;;;;;;6.98;71.38;102583.44;4982980;28;20080;-75
2021/03/23 08:48:34;;;;;;;77.85;36.58;;;;;;;6.92;72.25;102586.38;4981968;28;20073;-75
2021/03/23 08:51:08;;;;;;;78.10;36.90;;;;;;;6.84;72.09;102584.16;4989517;28;20053;-75
2021/03/23 08:53:37;;;;;;;92.20;39.72;;;;;;;6.89;72.21;102578.69;5004118;28;20054;-75
2021/03/23 08:56:04;;;;;;;82.10;37.53;;;;;;;6.81;72.97;102597.34;4974273;28;20113;-75
2021/03/23 08:58:37;;;;;;;84.20;37.50;;;;;;;6.76;73.08;102590.66;4977828;28;20062;-75
2021/03/23 09:01:04;;;;;;;69.18;31.95;;;;;;;6.51;74.02;102592.75;4973819;28;20102;-74
2021/03/23 09:03:44;;;;;;;84.18;36.88;;;;;;;6.56;74.42;102602.13;4984934;28;20183;-74
2021/03/23 09:06:20;;;;;;;74.90;31.30;;;;;;;6.52;74.85;102602.25;4967713;28;20054;-74
2021/03/23 09:08:49;;;;;;;91.00;37.67;;;;;;;6.34;75.51;102603.19;4986312;28;20461;-74
2021/03/23 09:11:15;;;;;;;84.15;34.53;;;;;;;6.35;75.60;102604.88;4981634;28;20054;-74
2021/03/23 09:13:43;;;;;;;77.63;32.50;;;;;;;6.45;75.37;102602.63;4982602;28;20172;-74
2021/03/23 09:16:12;;;;;;;78.03;32.65;;;;;;;6.32;76.14;102602.41;4979418;28;20508;-73
2021/03/23 09:19:00;;;;;;;70.45;30.15;;;;;;;6.35;76.14;102604.88;4985083;28;20472;-74
2021/03/23 09:21:47;;;;;;;;;;;;;;;6.41;76.80;102603.69;4973255;28;20050;-73
2021/03/23 09:24:35;;;;;;;78.93;30.15;;;;;;;6.43;76.16;102607.06;4998378;28;20043;-73
2021/03/23 09:27:04;;;;;;;77.25;31.00;;;;;;;6.50;76.73;102608.47;4982531;28;20739;-74
2021/03/23 09:29:38;;;;;;;81.15;31.52;;;;;;;6.56;76.08;102605.56;4976882;28;20089;-74
2021/03/23 09:32:08;;;;;;;77.28;30.83;;;;;;;6.67;76.23;102615.47;4985826;28;20050;-74
2021/03/23 09:35:24;;;;;;;72.38;31.00;;;;;;;6.64;76.14;102602.56;4977309;28;20138;-74
2021/03/23 09:37:58;;;;;;;85.38;31.95;;;;;;;6.70;76.47;102591.81;4999773;28;20061;-74
2021/03/23 09:40:32;;;;;;;75.20;30.85;;;;;;;6.79;76.11;102590.53;4994095;28;20107;-74
2021/03/23 09:43:04;;;;;;;84.00;32.60;;;;;;;6.79;76.34;102601.78;4995266;28;20117;-73
2021/03/23 09:45:36;;;;;;;69.50;28.80;;;;;;;6.92;76.09;102602.03;4979767;28;20085;-73
2021/03/23 09:48:24;;;;;;;76.28;30.25;;;;;;;6.83;76.24;102612.91;4985930;28;21002;-74
2021/03/23 09:50:53;;;;;;;79.05;30.80;;;;;;;7.00;75.52;102612.03;4979422;28;20066;-73
2021/03/23 09:53:28;;;;;;;77.78;31.55;;;;;;;7.00;75.35;102612.03;4989739;28;20091;-73
2021/03/23 09:56:19;;;;;;;79.45;31.23;;;;;;;7.12;75.32;102609.66;4974945;28;20049;-73
2021/03/23 09:58:46;;;;;;;72.50;30.42;;;;;;;7.17;75.62;102612.00;4985466;28;20054;-74
2021/03/23 10:01:14;;;;;;;71.78;29.52;;;;;;;7.18;75.20;102610.25;4979835;28;20832;-74
2021/03/23 10:03:42;;;;;;;65.97;29.15;;;;;;;7.22;74.71;102614.41;4984735;28;20058;-73
2021/03/23 10:06:17;;;;;;;63.83;28.58;;;;;;;7.25;74.40;102614.22;4985903;28;20054;-74
2021/03/23 10:09:06;;;;;;;61.63;28.10;;;;;;;7.35;74.76;102604.13;4975496;28;20066;-74
2021/03/23 10:11:42;;;;;;;63.42;27.95;;;;;;;7.35;74.28;102597.16;4995387;28;20050;-74
2021/03/23 10:14:10;;;;;;;64.22;28.00;;;;;;;7.42;73.81;102608.13;4981346;28;20062;-73
2021/03/23 10:16:39;;;;;;;60.40;28.33;;;;;;;7.35;73.72;102605.00;4995483;28;20058;-73
2021/03/23 10:19:10;;;;;;;66.78;29.05;;;;;;;7.33;73.92;102599.00;4995074;28;20062;-72
2021/03/23 10:21:44;;;;;;;69.40;29.83;;;;;;;7.47;73.85;102598.28;4989367;28;20428;-72
2021/03/23 10:24:15;;;;;;;69.55;31.20;;;;;;;7.56;73.41;102597.75;4994245;28;20054;-72
2021/03/23 10:26:47;;;;;;;65.80;30.02;;;;;;;7.69;72.60;102595.34;5003360;28;20108;-72
2021/03/23 10:29:31;;;;;;;66.95;29.17;;;;;;;7.79;72.42;102591.28;4998094;28;20649;-72
2021/03/23 10:32:14;;;;;;;71.80;31.58;;;;;;;7.86;72.53;102586.56;5004861;28;20104;-72
2021/03/23 10:35:00;;;;;;;72.28;31.20;;;;;;;7.99;72.06;102587.56;4988965;28;20050;-72
2021/03/23 10:37:27;;;;;;;70.80;30.20;;;;;;;8.19;72.12;102589.03;4981572;28;20061;-72
2021/03/23 10:39:53;;;;;;;69.88;32.15;;;;;;;8.16;70.98;102591.00;4978784;28;20058;-72
2021/03/23 10:42:33;;;;;;;75.35;34.08;;;;;;;8.23;70.54;102584.47;4981949;28;20779;-73
2021/03/23 10:45:21;;;;;;;73.05;33.28;;;;;;;8.22;70.56;102588.88;4969420;28;20390;-72
2021/03/23 10:48:04;;;;;;;75.35;34.45;;;;;;;8.40;70.30;102589.59;4983697;28;20524;-73
2021/03/23 10:50:33;;;;;;;78.10;34.13;;;;;;;8.35;69.73;102569.84;4975007;28;20515;-72
2021/03/23 10:53:21;;;;;;;71.95;32.47;;;;;;;8.68;69.55;102567.06;4987484;28;20108;-72
2021/03/23 10:55:50;;;;;;;70.78;32.30;;;;;;;8.95;69.45;102563.75;4979520;28;20054;-72
2021/03/23 10:58:27;;;;;;;81.25;34.78;;;;;;;9.03;68.17;102569.34;4977422;28;20065;-72
2021/03/23 11:00:59;;;;;;;76.85;34.97;;;;;;;9.16;67.87;102564.22;4999724;28;20490;-72
2021/03/23 11:03:29;;;;;;;72.18;34.17;;;;;;;9.19;67.87;102569.25;4965168;28;20053;-74
2021/03/23 11:05:56;;;;;;;79.07;35.97;;;;;;;9.16;67.23;102566.81;4968850;28;20054;-72
2021/03/23 11:08:22;;;;;;;81.32;35.63;;;;;;;8.85;67.57;102564.28;4978413;28;20054;-72
2021/03/23 11:10:49;;;;;;;84.20;34.63;;;;;;;8.82;67.59;102574.09;4982976;28;20050;-72
2021/03/23 11:13:16;;;;;;;85.53;37.42;;;;;;;8.71;68.62;102572.97;4977328;28;20061;-72
2021/03/23 11:15:44;;;;;;;80.38;36.72;;;;;;;8.67;68.49;102571.47;4987163;28;20105;-72
2021/03/23 11:18:18;;;;;;;72.53;35.03;;;;;;;8.91;68.52;102571.75;4987360;28;20394;-72
2021/03/23 11:20:53;;;;;;;75.90;34.35;;;;;;;8.96;67.94;102563.66;4989295;28;20496;-72
2021/03/23 11:23:46;;;;;;;76.55;34.45;;;;;;;9.11;68.12;102564.47;4992948;28;20095;-72
2021/03/23 11:26:24;;;;;;;70.95;33.13;;;;;;;9.08;67.48;102562.91;4991113;28;20456;-73
2021/03/23 11:28:58;;;;;;;68.90;33.63;;;;;;;9.19;67.61;102559.63;4989421;28;20780;-72
2021/03/23 11:31:28;;;;;;;75.55;33.25;;;;;;;9.12;67.16;102554.88;4986200;28;20125;-75
2021/03/23 11:33:56;;;;;;;70.85;32.75;;;;;;;9.21;66.92;102563.00;4990319;28;20052;-72
2021/03/23 11:36:23;;;;;;;71.00;33.23;;;;;;;8.90;66.89;102556.19;4989246;28;20108;-72
2021/03/23 11:38:50;;;;;;;81.32;35.40;;;;;;;8.91;67.93;102556.06;4992463;28;20283;-72
2021/03/23 11:41:22;;;;;;;73.95;32.67;;;;;;;8.85;67.40;102545.97;4978929;28;20061;-73
2021/03/23 11:43:50;;;;;;;73.43;34.17;;;;;;;8.82;67.66;102553.16;4978864;28;20062;-72
2021/03/23 11:46:34;;;;;;;76.78;34.75;;;;;;;8.85;67.63;102553.81;4990053;28;20047;-72